City Of Cleveland — WDC2358 — position and weather

sailwx.info

Track history (hours):
 
Tides and Currents Weather Stations Pressure Air Temp Water Temp Dewpoint Dewpoint Depression Visibility Wind Speed Wind Dir Waves Ship Positions

City Of Cleveland

Owner: JANTRAN, INC., ROSEDALE, MS. More information available from US FCC via Universal Licensing System and Coast Guard Vessel Documentation Center.

Last reported at 2016-Sep-25 17:31 UTC. Time now 2016-Sep-29 15:17 UTC.
Position N 32°40' W 091°08'.

Length 42 m; draft 12.5 m.

Type: Towing. MMSI: 366991810.

Date/timePositionNaut miles runAvg speedWind from/ knotsBaromVisibWave heightAir tempDewpointWater temp
2016-Sep-25 17:31N 32°40' W 091°08'4 3.5
2016-Sep-25 16:25N 32°36' W 091°09'4 4.5
2016-Sep-25 15:33N 32°33' W 091°06'4 4.5
2016-Sep-25 14:33N 32°29' W 091°07'8 4.0
2016-Sep-25 12:33N 32°23' W 090°60'3 3.2
2016-Sep-25 11:33N 32°21' W 090°57'3 3.3
2016-Sep-25 10:33N 32°18' W 090°55'1 0.8
2016-Sep-25 09:33N 32°18' W 090°55'0 0.0
2016-Sep-25 07:33N 32°18' W 090°55'0 0.0
2016-Sep-25 04:33N 32°18' W 090°55'0 0.0
2016-Sep-25 00:33N 32°18' W 090°55'0 0.0
2016-Sep-24 22:33N 32°18' W 090°55'0 0.0
2016-Sep-24 21:33N 32°18' W 090°55'0 0.0
2016-Sep-24 19:33N 32°18' W 090°55'0 0.0
2016-Sep-24 18:33N 32°18' W 090°55'0 0.0
2016-Sep-24 17:33N 32°18' W 090°55'0 0.0
2016-Sep-24 16:33N 32°18' W 090°55'0 0.0
2016-Sep-24 14:33N 32°18' W 090°55'0 0.0
2016-Sep-24 12:33N 32°18' W 090°55'3 1.4
2016-Sep-24 10:33N 32°16' W 090°58'4 4.1
2016-Sep-24 09:33N 32°12' W 090°59'  
2016-Sep-20 17:33N 29°56' W 090°08'0 0.0
2016-Sep-20 14:33N 29°56' W 090°08'0 0.0
2016-Sep-20 13:33N 29°56' W 090°08'0 0.0
2016-Sep-20 10:33N 29°56' W 090°08'0 0.2
2016-Sep-20 08:33N 29°56' W 090°09'0 0.0
2016-Sep-20 07:26N 29°56' W 090°09'1 1.4
2016-Sep-20 06:33N 29°57' W 090°10'5 1.1
2016-Sep-20 02:33N 29°58' W 090°15'8 0.5
2016-Sep-19 09:33N 29°59' W 090°24'0 0.0
2016-Sep-19 07:33N 29°59' W 090°24'  
Track history (hours):
 
Tides and Currents Weather Stations Pressure Air Temp Water Temp Dewpoint Dewpoint Depression Visibility Wind Speed Wind Dir Waves Ship Positions

City Of Cleveland

Owner: JANTRAN, INC., ROSEDALE, MS. More information available from US FCC via Universal Licensing System and Coast Guard Vessel Documentation Center.

Last reported at 2016-Sep-25 17:31 UTC. Time now 2016-Sep-29 15:17 UTC.
Position N 32°40' W 091°08'.

Length 42 m; draft 12.5 m.

Type: Towing. MMSI: 366991810.

Date/timePositionNaut miles runAvg speedWind from/ knotsBaromVisibWave heightAir tempDewpointWater temp
2016-Sep-25 17:31N 32°40' W 091°08'4 3.5
2016-Sep-25 16:25N 32°36' W 091°09'4 4.5
2016-Sep-25 15:33N 32°33' W 091°06'4 4.5
2016-Sep-25 14:33N 32°29' W 091°07'8 4.0
2016-Sep-25 12:33N 32°23' W 090°60'3 3.2
2016-Sep-25 11:33N 32°21' W 090°57'3 3.3
2016-Sep-25 10:33N 32°18' W 090°55'1 0.8
2016-Sep-25 09:33N 32°18' W 090°55'0 0.0
2016-Sep-25 07:33N 32°18' W 090°55'0 0.0
2016-Sep-25 04:33N 32°18' W 090°55'0 0.0
2016-Sep-25 00:33N 32°18' W 090°55'0 0.0
2016-Sep-24 22:33N 32°18' W 090°55'0 0.0
2016-Sep-24 21:33N 32°18' W 090°55'0 0.0
2016-Sep-24 19:33N 32°18' W 090°55'0 0.0
2016-Sep-24 18:33N 32°18' W 090°55'0 0.0
2016-Sep-24 17:33N 32°18' W 090°55'0 0.0
2016-Sep-24 16:33N 32°18' W 090°55'0 0.0
2016-Sep-24 14:33N 32°18' W 090°55'0 0.0
2016-Sep-24 12:33N 32°18' W 090°55'3 1.4
2016-Sep-24 10:33N 32°16' W 090°58'4 4.1
2016-Sep-24 09:33N 32°12' W 090°59'  
2016-Sep-20 17:33N 29°56' W 090°08'0 0.0
2016-Sep-20 14:33N 29°56' W 090°08'0 0.0
2016-Sep-20 13:33N 29°56' W 090°08'0 0.0
2016-Sep-20 10:33N 29°56' W 090°08'0 0.2
2016-Sep-20 08:33N 29°56' W 090°09'0 0.0
2016-Sep-20 07:26N 29°56' W 090°09'1 1.4
2016-Sep-20 06:33N 29°57' W 090°10'5 1.1
2016-Sep-20 02:33N 29°58' W 090°15'8 0.5
2016-Sep-19 09:33N 29°59' W 090°24'0 0.0
2016-Sep-19 07:33N 29°59' W 090°24'  

Dump ship's entire track history